LPPR/OPO METAR and TAF weather

Enter ICAO airport designator
Station Type Date Time Source
LPPR METAR 2020/01/18 15:30 UTC NOAA

LPPR 181530Z 26007KT 210V310 9999 SCT015 FEW020TCU 15/13 Q1023


Station Type Date Time Source
LPPR Decoded METAR 2020/01/18 15:30 UTC NOAA

Porto / Pedras Rubras, Portugal (LPPR) 41-14N 008-41W 77M
Jan 18, 2020 - 10:30 AM EST / 2020.01.18 1530 UTC
Wind: from the W (260 degrees) at 8 MPH (7 KT) (direction variable):0
Visibility: greater than 7 mile(s):0
Sky conditions: partly cloudy
Weather: Towering cumulus clouds observed
Temperature: 59 F (15 C)
Dew Point: 55 F (13 C)
Relative Humidity: 87%
Pressure (altimeter): 30.21 in. Hg (1023 hPa)
ob: LPPR 181530Z 26007KT 210V310 9999 SCT015 FEW020TCU 15/13 Q1023
cycle: 15

Station Type Date Time Source
LPPR TAF 2020/01/18 12:18 UTC NOAA

TAF LPPR 181100Z 1812/1912 24010KT 3000 -RA BR BKN002
BECMG 1812/1815 30013KT 9999 NSW SCT015 BKN030
TEMPO 1815/1822 30017G27KT 8000 SHRA SCT008 BKN015 FEW020CB
BECMG 1822/1824 35008KT
BECMG 1900/1903 CAVOK
BECMG 1906/1909 03008KT

Example: see airport list